sensor_id;sensor_type;location;lat;lon;timestamp;pressure;altitude;pressure_sealevel;temperature;humidity
70833;BME280;58452;59.418;17.962;2022-11-22T00:01:27;100691.19;;;1.80;77.96
70833;BME280;58452;59.418;17.962;2022-11-22T00:03:53;100693.72;;;1.80;78.35
70833;BME280;58452;59.418;17.962;2022-11-22T00:06:19;100696.13;;;1.83;78.04
70833;BME280;58452;59.418;17.962;2022-11-22T00:08:45;100696.66;;;1.88;77.90
70833;BME280;58452;59.418;17.962;2022-11-22T00:11:10;100697.03;;;1.82;78.25
70833;BME280;58452;59.418;17.962;2022-11-22T00:13:36;100696.28;;;1.80;77.65
70833;BME280;58452;59.418;17.962;2022-11-22T00:16:02;100691.19;;;1.80;77.60
70833;BME280;58452;59.418;17.962;2022-11-22T00:18:28;100697.91;;;1.81;77.45
70833;BME280;58452;59.418;17.962;2022-11-22T00:20:54;100691.94;;;1.82;77.48
70833;BME280;58452;59.418;17.962;2022-11-22T00:23:20;100695.81;;;1.74;78.11
70833;BME280;58452;59.418;17.962;2022-11-22T00:25:46;100688.06;;;1.61;78.69
70833;BME280;58452;59.418;17.962;2022-11-22T00:28:12;100696.75;;;1.57;78.26
70833;BME280;58452;59.418;17.962;2022-11-22T00:30:37;100694.94;;;1.59;78.53
70833;BME280;58452;59.418;17.962;2022-11-22T00:33:03;100683.28;;;1.55;78.24
70833;BME280;58452;59.418;17.962;2022-11-22T00:35:28;100689.50;;;1.65;78.02
70833;BME280;58452;59.418;17.962;2022-11-22T00:37:53;100698.94;;;1.63;78.48
70833;BME280;58452;59.418;17.962;2022-11-22T00:40:19;100700.25;;;1.70;78.20
70833;BME280;58452;59.418;17.962;2022-11-22T00:42:44;100704.91;;;1.78;77.94
70833;BME280;58452;59.418;17.962;2022-11-22T00:45:10;100700.72;;;1.77;77.95
70833;BME280;58452;59.418;17.962;2022-11-22T00:47:35;100705.88;;;1.61;78.36
70833;BME280;58452;59.418;17.962;2022-11-22T00:50:00;100705.47;;;1.53;78.16
70833;BME280;58452;59.418;17.962;2022-11-22T00:52:26;100710.03;;;1.62;78.16
70833;BME280;58452;59.418;17.962;2022-11-22T00:54:51;100706.41;;;1.66;78.05
70833;BME280;58452;59.418;17.962;2022-11-22T00:57:17;100701.31;;;1.66;78.00
70833;BME280;58452;59.418;17.962;2022-11-22T00:59:42;100706.41;;;1.66;77.64
70833;BME280;58452;59.418;17.962;2022-11-22T01:02:07;100712.38;;;1.65;77.29
70833;BME280;58452;59.418;17.962;2022-11-22T01:04:33;100698.88;;;1.65;77.39
70833;BME280;58452;59.418;17.962;2022-11-22T01:06:58;100709.34;;;1.74;77.51
70833;BME280;58452;59.418;17.962;2022-11-22T01:09:24;100702.44;;;1.76;77.74
70833;BME280;58452;59.418;17.962;2022-11-22T01:11:49;100693.91;;;1.77;77.53
70833;BME280;58452;59.418;17.962;2022-11-22T01:14:16;100701.31;;;1.66;76.94
70833;BME280;58452;59.418;17.962;2022-11-22T01:16:42;100700.06;;;1.73;76.25
70833;BME280;58452;59.418;17.962;2022-11-22T01:19:07;100707.81;;;1.72;76.81
70833;BME280;58452;59.418;17.962;2022-11-22T01:21:33;100708.53;;;1.74;77.09
70833;BME280;58452;59.418;17.962;2022-11-22T01:23:59;100714.25;;;1.77;76.71
70833;BME280;58452;59.418;17.962;2022-11-22T01:26:24;100711.63;;;1.79;76.78
70833;BME280;58452;59.418;17.962;2022-11-22T01:28:49;100708.28;;;1.78;76.40
70833;BME280;58452;59.418;17.962;2022-11-22T01:31:15;100713.09;;;1.83;76.32
70833;BME280;58452;59.418;17.962;2022-11-22T01:33:40;100721.28;;;1.88;76.79
70833;BME280;58452;59.418;17.962;2022-11-22T01:36:05;100717.00;;;1.88;76.36
70833;BME280;58452;59.418;17.962;2022-11-22T01:38:31;100723.75;;;1.89;76.39
70833;BME280;58452;59.418;17.962;2022-11-22T01:40:56;100720.63;;;1.84;76.42
70833;BME280;58452;59.418;17.962;2022-11-22T01:43:24;100719.81;;;1.84;76.78
70833;BME280;58452;59.418;17.962;2022-11-22T01:45:55;100718.66;;;1.89;76.82
70833;BME280;58452;59.418;17.962;2022-11-22T01:48:31;100723.94;;;1.86;76.36
70833;BME280;58452;59.418;17.962;2022-11-22T01:51:25;100720.47;;;1.87;76.48
70833;BME280;58452;59.418;17.962;2022-11-22T01:53:55;100723.78;;;1.74;77.30
70833;BME280;58452;59.418;17.962;2022-11-22T01:56:23;100721.00;;;1.78;76.99
70833;BME280;58452;59.418;17.962;2022-11-22T01:58:59;100727.56;;;1.82;76.93
70833;BME280;58452;59.418;17.962;2022-11-22T02:01:27;100726.09;;;1.78;76.58
70833;BME280;58452;59.418;17.962;2022-11-22T02:03:55;100729.06;;;1.71;76.74
70833;BME280;58452;59.418;17.962;2022-11-22T02:06:22;100733.13;;;1.73;76.91
70833;BME280;58452;59.418;17.962;2022-11-22T02:08:57;100732.81;;;1.79;76.35
70833;BME280;58452;59.418;17.962;2022-11-22T02:11:25;100739.38;;;1.83;76.51
70833;BME280;58452;59.418;17.962;2022-11-22T02:13:52;100726.09;;;1.78;76.33
70833;BME280;58452;59.418;17.962;2022-11-22T02:16:18;100727.88;;;1.76;76.46
70833;BME280;58452;59.418;17.962;2022-11-22T02:18:44;100746.09;;;1.84;76.23
70833;BME280;58452;59.418;17.962;2022-11-22T02:21:09;100739.38;;;1.83;76.03
70833;BME280;58452;59.418;17.962;2022-11-22T02:23:54;100741.16;;;1.81;76.86
70833;BME280;58452;59.418;17.962;2022-11-22T02:26:24;100744.28;;;1.86;76.78
70833;BME280;58452;59.418;17.962;2022-11-22T02:28:51;100739.38;;;1.83;76.88
70833;BME280;58452;59.418;17.962;2022-11-22T02:31:44;100735.72;;;1.87;77.03
70833;BME280;58452;59.418;17.962;2022-11-22T02:34:10;100737.75;;;1.96;77.03
70833;BME280;58452;59.418;17.962;2022-11-22T02:36:45;100737.94;;;1.93;77.36
70833;BME280;58452;59.418;17.962;2022-11-22T02:39:13;100745.47;;;1.95;77.03
70833;BME280;58452;59.418;17.962;2022-11-22T02:41:40;100745.59;;;1.93;77.37
70833;BME280;58452;59.418;17.962;2022-11-22T02:44:08;100742.09;;;1.94;76.93
70833;BME280;58452;59.418;17.962;2022-11-22T02:46:34;100750.66;;;1.93;76.53
70833;BME280;58452;59.418;17.962;2022-11-22T02:49:00;100742.38;;;1.90;76.95
70833;BME280;58452;59.418;17.962;2022-11-22T02:51:25;100752.09;;;1.83;77.21
70833;BME280;58452;59.418;17.962;2022-11-22T02:53:51;100744.38;;;1.69;77.18
70833;BME280;58452;59.418;17.962;2022-11-22T02:56:18;100744.78;;;1.77;77.35
70833;BME280;58452;59.418;17.962;2022-11-22T02:58:44;100739.63;;;1.79;77.28
70833;BME280;58452;59.418;17.962;2022-11-22T03:01:13;100745.25;;;1.84;77.34
70833;BME280;58452;59.418;17.962;2022-11-22T03:03:38;100745.00;;;1.88;77.23
70833;BME280;58452;59.418;17.962;2022-11-22T03:06:03;100744.94;;;1.90;77.11
70833;BME280;58452;59.418;17.962;2022-11-22T03:08:29;100743.84;;;1.94;77.14
70833;BME280;58452;59.418;17.962;2022-11-22T03:10:57;100730.13;;;1.96;76.71
70833;BME280;58452;59.418;17.962;2022-11-22T03:13:23;100735.03;;;2.00;76.39
70833;BME280;58452;59.418;17.962;2022-11-22T03:15:49;100731.41;;;2.04;76.56
70833;BME280;58452;59.418;17.962;2022-11-22T03:18:15;100726.50;;;2.01;76.61
70833;BME280;58452;59.418;17.962;2022-11-22T03:20:40;100739.94;;;2.03;76.48
70833;BME280;58452;59.418;17.962;2022-11-22T03:23:05;100741.38;;;1.92;76.09
70833;BME280;58452;59.418;17.962;2022-11-22T03:25:31;100734.56;;;1.93;76.04
70833;BME280;58452;59.418;17.962;2022-11-22T03:27:56;100731.94;;;1.94;76.29
70833;BME280;58452;59.418;17.962;2022-11-22T03:30:23;100751.41;;;2.10;75.73
70833;BME280;58452;59.418;17.962;2022-11-22T03:32:48;100752.34;;;2.09;75.86
70833;BME280;58452;59.418;17.962;2022-11-22T03:35:14;100749.63;;;2.12;76.34
70833;BME280;58452;59.418;17.962;2022-11-22T03:37:39;100737.34;;;2.04;76.25
70833;BME280;58452;59.418;17.962;2022-11-22T03:40:05;100747.78;;;2.14;76.29
70833;BME280;58452;59.418;17.962;2022-11-22T03:42:31;100740.91;;;2.16;76.36
70833;BME280;58452;59.418;17.962;2022-11-22T03:44:56;100734.00;;;2.18;76.37
70833;BME280;58452;59.418;17.962;2022-11-22T03:47:21;100742.72;;;2.14;75.06
70833;BME280;58452;59.418;17.962;2022-11-22T03:49:47;100746.19;;;2.13;75.44
70833;BME280;58452;59.418;17.962;2022-11-22T03:52:12;100737.41;;;2.03;75.51
70833;BME280;58452;59.418;17.962;2022-11-22T03:54:37;100744.88;;;2.06;75.37
70833;BME280;58452;59.418;17.962;2022-11-22T03:57:03;100754.78;;;2.10;75.12
70833;BME280;58452;59.418;17.962;2022-11-22T03:59:29;100734.69;;;2.06;75.05
70833;BME280;58452;59.418;17.962;2022-11-22T04:01:55;100750.09;;;2.18;75.09
70833;BME280;58452;59.418;17.962;2022-11-22T04:04:20;100745.63;;;2.22;75.39
70833;BME280;58452;59.418;17.962;2022-11-22T04:06:45;100751.63;;;2.21;74.66
70833;BME280;58452;59.418;17.962;2022-11-22T04:09:11;100755.34;;;2.15;74.46
70833;BME280;58452;59.418;17.962;2022-11-22T04:11:37;100755.00;;;2.21;74.52
70833;BME280;58452;59.418;17.962;2022-11-22T04:14:02;100753.47;;;2.19;74.04
70833;BME280;58452;59.418;17.962;2022-11-22T04:16:46;100759.28;;;2.21;74.28
70833;BME280;58452;59.418;17.962;2022-11-22T04:19:11;100752.38;;;2.23;74.46
70833;BME280;58452;59.418;17.962;2022-11-22T04:21:37;100760.91;;;2.22;74.33
70833;BME280;58452;59.418;17.962;2022-11-22T04:24:08;100771.91;;;2.22;74.05
70833;BME280;58452;59.418;17.962;2022-11-22T04:26:53;100765.81;;;2.25;74.17
70833;BME280;58452;59.418;17.962;2022-11-22T04:29:19;100767.47;;;2.26;74.17
70833;BME280;58452;59.418;17.962;2022-11-22T04:31:45;100772.13;;;2.33;74.54
70833;BME280;58452;59.418;17.962;2022-11-22T04:34:30;100777.47;;;2.29;74.33
70833;BME280;58452;59.418;17.962;2022-11-22T04:36:56;100773.28;;;2.28;74.41
70833;BME280;58452;59.418;17.962;2022-11-22T04:39:21;100779.13;;;2.30;73.72
70833;BME280;58452;59.418;17.962;2022-11-22T04:41:47;100775.63;;;2.17;73.08
70833;BME280;58452;59.418;17.962;2022-11-22T04:44:32;100778.16;;;2.17;73.11
70833;BME280;58452;59.418;17.962;2022-11-22T04:47:11;100779.47;;;2.24;73.30
70833;BME280;58452;59.418;17.962;2022-11-22T04:49:37;100782.75;;;2.26;73.25
70833;BME280;58452;59.418;17.962;2022-11-22T04:52:03;100789.66;;;2.24;72.89
70833;BME280;58452;59.418;17.962;2022-11-22T04:54:47;100793.19;;;2.21;73.19
70833;BME280;58452;59.418;17.962;2022-11-22T04:57:13;100783.66;;;2.25;72.11
70833;BME280;58452;59.418;17.962;2022-11-22T04:59:38;100795.13;;;2.32;72.10
70833;BME280;58452;59.418;17.962;2022-11-22T05:02:03;100790.47;;;2.24;72.25
70833;BME280;58452;59.418;17.962;2022-11-22T05:04:29;100784.84;;;2.19;71.93
70833;BME280;58452;59.418;17.962;2022-11-22T05:06:54;100793.28;;;2.20;71.56
70833;BME280;58452;59.418;17.962;2022-11-22T05:09:21;100788.72;;;2.11;71.21
70833;BME280;58452;59.418;17.962;2022-11-22T05:11:47;100785.97;;;2.14;71.31
70833;BME280;58452;59.418;17.962;2022-11-22T05:14:13;100795.28;;;2.15;70.93
70833;BME280;58452;59.418;17.962;2022-11-22T05:16:39;100792.00;;;2.13;70.97
70833;BME280;58452;59.418;17.962;2022-11-22T05:19:04;100793.63;;;2.14;71.32
70833;BME280;58452;59.418;17.962;2022-11-22T05:21:29;100800.72;;;2.09;71.75
70833;BME280;58452;59.418;17.962;2022-11-22T05:23:55;100805.94;;;2.06;71.58
70833;BME280;58452;59.418;17.962;2022-11-22T05:28:46;100810.81;;;1.94;71.77
70833;BME280;58452;59.418;17.962;2022-11-22T05:31:13;100816.25;;;1.88;72.47
70833;BME280;58452;59.418;17.962;2022-11-22T05:33:41;100805.13;;;1.75;73.89
70833;BME280;58452;59.418;17.962;2022-11-22T05:36:08;100809.53;;;1.87;73.75
70833;BME280;58452;59.418;17.962;2022-11-22T05:38:34;100807.13;;;2.00;73.68
70833;BME280;58452;59.418;17.962;2022-11-22T05:41:08;100814.69;;;2.02;74.11
70833;BME280;58452;59.418;17.962;2022-11-22T05:43:34;100812.94;;;2.02;73.83
70833;BME280;58452;59.418;17.962;2022-11-22T05:46:14;100817.78;;;2.07;73.79
70833;BME280;58452;59.418;17.962;2022-11-22T05:48:42;100812.50;;;2.10;74.11
70833;BME280;58452;59.418;17.962;2022-11-22T05:51:11;100821.81;;;2.11;73.88
70833;BME280;58452;59.418;17.962;2022-11-22T05:53:38;100822.88;;;2.07;74.13
70833;BME280;58452;59.418;17.962;2022-11-22T05:56:11;100818.97;;;2.01;74.48
70833;BME280;58452;59.418;17.962;2022-11-22T05:58:37;100816.00;;;2.09;74.70
70833;BME280;58452;59.418;17.962;2022-11-22T06:03:28;100824.16;;;2.14;75.07
70833;BME280;58452;59.418;17.962;2022-11-22T06:05:54;100830.84;;;2.16;74.78
70833;BME280;58452;59.418;17.962;2022-11-22T06:08:19;100825.63;;;2.18;75.11
70833;BME280;58452;59.418;17.962;2022-11-22T06:10:44;100829.66;;;2.22;74.14
70833;BME280;58452;59.418;17.962;2022-11-22T06:13:10;100827.53;;;2.14;74.35
70833;BME280;58452;59.418;17.962;2022-11-22T06:15:35;100833.38;;;2.16;74.51
70833;BME280;58452;59.418;17.962;2022-11-22T06:18:00;100829.72;;;2.20;74.48
70833;BME280;58452;59.418;17.962;2022-11-22T06:20:26;100836.41;;;2.23;74.25
70833;BME280;58452;59.418;17.962;2022-11-22T06:22:51;100838.78;;;2.26;74.60
70833;BME280;58452;59.418;17.962;2022-11-22T06:25:16;100834.50;;;2.26;74.52
70833;BME280;58452;59.418;17.962;2022-11-22T06:27:42;100828.94;;;2.20;75.10
70833;BME280;58452;59.418;17.962;2022-11-22T06:30:07;100842.03;;;2.28;74.72
70833;BME280;58452;59.418;17.962;2022-11-22T06:32:33;100843.69;;;2.29;74.93
70833;BME280;58452;59.418;17.962;2022-11-22T06:35:00;100851.13;;;2.32;73.83
70833;BME280;58452;59.418;17.962;2022-11-22T06:37:25;100852.78;;;2.33;74.42
70833;BME280;58452;59.418;17.962;2022-11-22T06:39:50;100846.22;;;2.29;74.39
70833;BME280;58452;59.418;17.962;2022-11-22T06:42:16;100852.78;;;2.33;74.75
70833;BME280;58452;59.418;17.962;2022-11-22T06:44:42;100857.97;;;2.31;74.40
70833;BME280;58452;59.418;17.962;2022-11-22T06:47:07;100857.72;;;2.36;74.55
70833;BME280;58452;59.418;17.962;2022-11-22T06:49:34;100859.19;;;2.40;74.94
70833;BME280;58452;59.418;17.962;2022-11-22T06:52:00;100868.47;;;2.41;74.90
70833;BME280;58452;59.418;17.962;2022-11-22T06:54:25;100871.00;;;2.41;74.63
70833;BME280;58452;59.418;17.962;2022-11-22T06:56:50;100875.22;;;2.42;74.64
70833;BME280;58452;59.418;17.962;2022-11-22T06:59:16;100865.81;;;2.42;74.04
70833;BME280;58452;59.418;17.962;2022-11-22T07:01:41;100873.22;;;2.47;74.76
70833;BME280;58452;59.418;17.962;2022-11-22T07:04:07;100874.75;;;2.50;74.34
70833;BME280;58452;59.418;17.962;2022-11-22T07:06:34;100877.97;;;2.53;74.38
70833;BME280;58452;59.418;17.962;2022-11-22T07:09:02;100882.31;;;2.51;74.14
70833;BME280;58452;59.418;17.962;2022-11-22T07:11:29;100879.59;;;2.54;73.96
70833;BME280;58452;59.418;17.962;2022-11-22T07:13:56;100885.34;;;2.58;73.98
70833;BME280;58452;59.418;17.962;2022-11-22T07:16:22;100869.97;;;2.59;73.87
70833;BME280;58452;59.418;17.962;2022-11-22T07:18:48;100875.13;;;2.58;73.56
70833;BME280;58452;59.418;17.962;2022-11-22T07:21:19;100872.06;;;2.53;73.60
70833;BME280;58452;59.418;17.962;2022-11-22T07:23:47;100876.97;;;2.56;73.41
70833;BME280;58452;59.418;17.962;2022-11-22T07:26:13;100882.88;;;2.56;73.62
70833;BME280;58452;59.418;17.962;2022-11-22T07:28:40;100876.31;;;2.52;73.90
70833;BME280;58452;59.418;17.962;2022-11-22T07:31:08;100891.25;;;2.58;73.79
70833;BME280;58452;59.418;17.962;2022-11-22T07:33:34;100894.63;;;2.59;73.71
70833;BME280;58452;59.418;17.962;2022-11-22T07:36:11;100891.81;;;2.63;74.10
70833;BME280;58452;59.418;17.962;2022-11-22T07:38:37;100896.81;;;2.65;74.00
70833;BME280;58452;59.418;17.962;2022-11-22T07:41:03;100896.75;;;2.66;74.04
70833;BME280;58452;59.418;17.962;2022-11-22T07:43:29;100890.25;;;2.61;73.32
70833;BME280;58452;59.418;17.962;2022-11-22T07:46:04;100891.25;;;2.58;73.85
70833;BME280;58452;59.418;17.962;2022-11-22T07:48:46;100908.00;;;2.62;73.93
70833;BME280;58452;59.418;17.962;2022-11-22T07:51:11;100920.50;;;2.67;74.24
70833;BME280;58452;59.418;17.962;2022-11-22T07:53:37;100891.94;;;2.46;74.13
70833;BME280;58452;59.418;17.962;2022-11-22T07:56:03;100930.03;;;2.63;74.50
70833;BME280;58452;59.418;17.962;2022-11-22T07:58:29;100918.44;;;2.58;74.42
70833;BME280;58452;59.418;17.962;2022-11-22T08:00:55;100925.13;;;2.60;74.98
70833;BME280;58452;59.418;17.962;2022-11-22T08:03:20;100928.22;;;2.65;74.92
70833;BME280;58452;59.418;17.962;2022-11-22T08:05:46;100923.94;;;2.66;74.86
70833;BME280;58452;59.418;17.962;2022-11-22T08:08:11;100931.66;;;2.64;75.16
70833;BME280;58452;59.418;17.962;2022-11-22T08:10:36;100934.78;;;2.69;74.85
70833;BME280;58452;59.418;17.962;2022-11-22T08:13:02;100932.06;;;2.72;74.85
70833;BME280;58452;59.418;17.962;2022-11-22T08:15:27;100937.91;;;2.74;75.09
70833;BME280;58452;59.418;17.962;2022-11-22T08:17:53;100926.06;;;2.73;74.96
70833;BME280;58452;59.418;17.962;2022-11-22T08:20:18;100929.50;;;2.72;75.19
70833;BME280;58452;59.418;17.962;2022-11-22T08:22:43;100938.44;;;2.79;75.01
70833;BME280;58452;59.418;17.962;2022-11-22T08:25:09;100943.47;;;2.81;75.51
70833;BME280;58452;59.418;17.962;2022-11-22T08:27:41;100942.72;;;2.79;74.80
70833;BME280;58452;59.418;17.962;2022-11-22T08:30:07;100941.00;;;2.79;75.59
70833;BME280;58452;59.418;17.962;2022-11-22T08:32:33;100954.38;;;2.83;75.81
70833;BME280;58452;59.418;17.962;2022-11-22T08:34:58;100947.56;;;2.83;75.57
70833;BME280;58452;59.418;17.962;2022-11-22T08:37:24;100946.47;;;2.87;75.16
70833;BME280;58452;59.418;17.962;2022-11-22T08:39:49;100943.03;;;2.88;75.13
70833;BME280;58452;59.418;17.962;2022-11-22T08:42:15;100947.38;;;2.86;75.20
70833;BME280;58452;59.418;17.962;2022-11-22T08:44:40;100945.94;;;2.82;75.89
70833;BME280;58452;59.418;17.962;2022-11-22T08:47:08;100944.28;;;2.81;75.97
70833;BME280;58452;59.418;17.962;2022-11-22T08:49:34;100944.75;;;2.88;75.70
70833;BME280;58452;59.418;17.962;2022-11-22T08:51:59;100950.69;;;2.88;75.63
70833;BME280;58452;59.418;17.962;2022-11-22T08:54:24;100959.69;;;2.94;75.64
70833;BME280;58452;59.418;17.962;2022-11-22T08:56:50;100958.06;;;2.93;75.45
70833;BME280;58452;59.418;17.962;2022-11-22T08:59:15;100963.06;;;2.94;75.16
70833;BME280;58452;59.418;17.962;2022-11-22T09:01:40;100971.47;;;2.97;75.71
70833;BME280;58452;59.418;17.962;2022-11-22T09:04:06;100980.72;;;2.97;75.44
70833;BME280;58452;59.418;17.962;2022-11-22T09:06:31;100976.16;;;2.88;75.95
70833;BME280;58452;59.418;17.962;2022-11-22T09:08:58;100974.50;;;2.87;75.71
70833;BME280;58452;59.418;17.962;2022-11-22T09:11:23;100970.00;;;2.92;75.82
70833;BME280;58452;59.418;17.962;2022-11-22T09:13:49;100991.47;;;2.88;75.87
70833;BME280;58452;59.418;17.962;2022-11-22T09:16:18;100987.03;;;2.76;76.35
70833;BME280;58452;59.418;17.962;2022-11-22T09:18:44;100992.72;;;2.81;75.71
70833;BME280;58452;59.418;17.962;2022-11-22T09:21:12;101001.47;;;2.91;75.89
70833;BME280;58452;59.418;17.962;2022-11-22T09:23:43;100999.50;;;2.97;75.83
70833;BME280;58452;59.418;17.962;2022-11-22T09:26:11;101002.59;;;3.02;75.83
70833;BME280;58452;59.418;17.962;2022-11-22T09:28:37;101001.50;;;3.06;76.11
70833;BME280;58452;59.418;17.962;2022-11-22T09:31:04;100989.84;;;3.02;75.47
70833;BME280;58452;59.418;17.962;2022-11-22T09:33:30;100996.16;;;3.10;75.74
70833;BME280;58452;59.418;17.962;2022-11-22T09:36:11;101004.44;;;3.14;76.04
70833;BME280;58452;59.418;17.962;2022-11-22T09:38:37;100997.16;;;3.08;74.91
70833;BME280;58452;59.418;17.962;2022-11-22T09:44:23;101002.09;;;3.11;75.40
70833;BME280;58452;59.418;17.962;2022-11-22T09:49:56;101000.91;;;3.16;75.34
70833;BME280;58452;59.418;17.962;2022-11-22T09:52:37;101005.88;;;3.04;74.96
70833;BME280;58452;59.418;17.962;2022-11-22T09:58:03;101012.72;;;3.03;75.90
70833;BME280;58452;59.418;17.962;2022-11-22T10:00:31;101021.00;;;3.07;75.63
70833;BME280;58452;59.418;17.962;2022-11-22T10:03:17;101026.69;;;3.12;75.56
70833;BME280;58452;59.418;17.962;2022-11-22T10:05:48;101029.88;;;3.15;75.29
70833;BME280;58452;59.418;17.962;2022-11-22T10:10:52;101016.19;;;3.16;74.94
70833;BME280;58452;59.418;17.962;2022-11-22T10:13:38;101011.91;;;3.17;74.45
70833;BME280;58452;59.418;17.962;2022-11-22T10:16:27;100997.41;;;3.03;74.48
70833;BME280;58452;59.418;17.962;2022-11-22T10:19:14;101026.06;;;3.22;74.53
70833;BME280;58452;59.418;17.962;2022-11-22T10:21:42;100991.88;;;3.11;73.67
70833;BME280;58452;59.418;17.962;2022-11-22T10:24:14;100979.66;;;3.02;73.99
70833;BME280;58452;59.418;17.962;2022-11-22T10:26:40;101003.88;;;3.09;73.83
70833;BME280;58452;59.418;17.962;2022-11-22T10:29:32;101026.91;;;3.23;74.08
70833;BME280;58452;59.418;17.962;2022-11-22T10:34:52;101039.47;;;3.26;74.03
70833;BME280;58452;59.418;17.962;2022-11-22T10:40:26;101028.44;;;3.25;74.08
70833;BME280;58452;59.418;17.962;2022-11-22T10:43:03;101036.38;;;3.35;73.95
70833;BME280;58452;59.418;17.962;2022-11-22T10:45:42;100997.69;;;3.13;74.80
70833;BME280;58452;59.418;17.962;2022-11-22T10:48:21;101040.84;;;3.45;74.23
70833;BME280;58452;59.418;17.962;2022-11-22T10:59:17;101037.84;;;3.53;73.76
70833;BME280;58452;59.418;17.962;2022-11-22T11:02:26;101010.16;;;3.33;72.95
70833;BME280;58452;59.418;17.962;2022-11-22T11:04:58;100982.31;;;3.14;72.89
70833;BME280;58452;59.418;17.962;2022-11-22T11:07:25;100997.00;;;3.25;73.83
70833;BME280;58452;59.418;17.962;2022-11-22T11:09:59;100981.06;;;3.21;73.25
70833;BME280;58452;59.418;17.962;2022-11-22T11:15:20;101041.81;;;3.59;73.55
70833;BME280;58452;59.418;17.962;2022-11-22T11:17:58;100983.63;;;3.21;73.67
70833;BME280;58452;59.418;17.962;2022-11-22T11:20:32;101015.78;;;3.38;73.67
70833;BME280;58452;59.418;17.962;2022-11-22T11:22:58;101057.00;;;3.60;73.93
70833;BME280;58452;59.418;17.962;2022-11-22T11:25:32;101055.19;;;3.62;73.07
70833;BME280;58452;59.418;17.962;2022-11-22T11:28:04;101056.81;;;3.63;73.60
70833;BME280;58452;59.418;17.962;2022-11-22T11:30:42;101055.19;;;3.62;73.16
70833;BME280;58452;59.418;17.962;2022-11-22T11:35:43;101052.66;;;3.62;72.82
70833;BME280;58452;59.418;17.962;2022-11-22T11:38:31;101047.53;;;3.62;73.00
70833;BME280;58452;59.418;17.962;2022-11-22T11:41:01;101041.88;;;3.57;73.15
70833;BME280;58452;59.418;17.962;2022-11-22T11:43:41;101050.09;;;3.48;72.87
70833;BME280;58452;59.418;17.962;2022-11-22T11:46:23;101055.72;;;3.53;72.27
70833;BME280;58452;59.418;17.962;2022-11-22T11:48:53;101047.53;;;3.48;72.97
70833;BME280;58452;59.418;17.962;2022-11-22T11:51:23;101060.63;;;3.56;72.76
70833;BME280;58452;59.418;17.962;2022-11-22T11:56:27;101036.69;;;3.44;73.38
70833;BME280;58452;59.418;17.962;2022-11-22T11:58:56;101010.47;;;3.27;74.42
70833;BME280;58452;59.418;17.962;2022-11-22T12:01:23;101065.41;;;3.62;73.91
70833;BME280;58452;59.418;17.962;2022-11-22T12:03:55;101034.03;;;3.46;74.06
70833;BME280;58452;59.418;17.962;2022-11-22T12:06:29;101020.88;;;3.38;74.08
70833;BME280;58452;59.418;17.962;2022-11-22T12:09:00;101016.88;;;3.34;73.93
70833;BME280;58452;59.418;17.962;2022-11-22T12:11:33;101018.50;;;3.35;73.88
70833;BME280;58452;59.418;17.962;2022-11-22T12:14:11;101013.34;;;3.36;73.58
70833;BME280;58452;59.418;17.962;2022-11-22T12:16:46;101014.06;;;3.38;73.54
70833;BME280;58452;59.418;17.962;2022-11-22T12:19:28;101069.69;;;3.76;73.72
70833;BME280;58452;59.418;17.962;2022-11-22T12:22:02;101011.03;;;3.32;73.37
70833;BME280;58452;59.418;17.962;2022-11-22T12:25:00;101062.41;;;3.70;73.48
70833;BME280;58452;59.418;17.962;2022-11-22T12:27:28;101030.38;;;3.50;73.42
70833;BME280;58452;59.418;17.962;2022-11-22T12:29:56;101064.22;;;3.68;73.38
70833;BME280;58452;59.418;17.962;2022-11-22T12:32:26;101065.34;;;3.78;73.30
70833;BME280;58452;59.418;17.962;2022-11-22T12:35:04;101067.06;;;3.77;73.36
70833;BME280;58452;59.418;17.962;2022-11-22T12:37:38;101049.09;;;3.65;73.14
70833;BME280;58452;59.418;17.962;2022-11-22T12:40:48;101061.97;;;3.77;73.00
70833;BME280;58452;59.418;17.962;2022-11-22T12:43:16;101062.13;;;3.74;73.32
70833;BME280;58452;59.418;17.962;2022-11-22T12:45:51;101055.84;;;3.66;72.93
70833;BME280;58452;59.418;17.962;2022-11-22T12:48:21;101053.94;;;3.69;73.13
70833;BME280;58452;59.418;17.962;2022-11-22T12:50:52;101051.38;;;3.69;73.03
70833;BME280;58452;59.418;17.962;2022-11-22T12:53:30;101056.84;;;3.77;72.77
70833;BME280;58452;59.418;17.962;2022-11-22T12:56:07;101065.22;;;3.79;72.52
70833;BME280;58452;59.418;17.962;2022-11-22T13:01:29;101052.47;;;3.79;73.41
70833;BME280;58452;59.418;17.962;2022-11-22T13:09:55;101039.81;;;3.78;73.25
70833;BME280;58452;59.418;17.962;2022-11-22T13:12:29;101057.19;;;3.85;73.18
70833;BME280;58452;59.418;17.962;2022-11-22T13:14:57;101042.25;;;3.79;72.52
70833;BME280;58452;59.418;17.962;2022-11-22T13:17:32;101041.34;;;3.80;72.84
70833;BME280;58452;59.418;17.962;2022-11-22T13:26:08;101044.25;;;3.74;73.43
70833;BME280;58452;59.418;17.962;2022-11-22T13:28:39;101029.88;;;3.59;73.63
70833;BME280;58452;59.418;17.962;2022-11-22T13:33:41;101002.31;;;3.36;72.36
70833;BME280;58452;59.418;17.962;2022-11-22T13:38:53;101060.63;;;3.56;74.19
70833;BME280;58452;59.418;17.962;2022-11-22T13:43:57;101076.69;;;3.44;73.88
70833;BME280;58452;59.418;17.962;2022-11-22T13:47:00;101072.56;;;3.41;74.07
70833;BME280;58452;59.418;17.962;2022-11-22T13:49:38;101064.16;;;3.25;74.83
70833;BME280;58452;59.418;17.962;2022-11-22T13:54:58;101062.75;;;3.20;74.83
70833;BME280;58452;59.418;17.962;2022-11-22T13:57:37;101058.59;;;3.03;75.25
70833;BME280;58452;59.418;17.962;2022-11-22T14:02:45;101065.91;;;3.09;74.97
70833;BME280;58452;59.418;17.962;2022-11-22T14:07:50;101053.19;;;2.93;76.03
70833;BME280;58452;59.418;17.962;2022-11-22T14:10:35;101063.78;;;3.02;75.91